Terminal Aerodrome Forecast
Issued by NWS Wilmington, OH

Current Version | Previous Version | Graphics & Text | Print | Product List | Glossary On
Versions: 1 2 3 4 5 6 7 8 9 10 11 12 13 14 15 16 17 18 19 20 21
485
FTUS41 KILN 151746 AAA
TAFDAY
TAF AMD
KDAY 151746Z 1518/1618 27005KT P6SM SCT045
     FM160100 VRB03KT P6SM FEW150
     FM160700 00000KT 5SM BR SCT150
     FM161100 00000KT 2SM BR SCT120
     FM161400 18004KT P6SM BKN040=

USA.gov is the U.S. government's official web portal to all federal, state and local government web resources and services.